Time;durP1;ratioP1;P1;durP2;ratioP2;P2;SDS_P1;SDS_P2;PMS_P1;PMS_P2;Temp;Humidity;BMP_temperature;BMP_pressure;BME280_temperature;BME280_humidity;BME280_pressure;Samples;Min_cycle;Max_cycle;Signal;HPM_P1;HPM_P2
2023/10/07 00:01:25;;;;;;;20.67;18.77;;;14.00;99.90;;;;;;4905941;28;20043;-77
2023/10/07 00:03:53;;;;;;;21.10;19.05;;;14.00;99.90;;;;;;4926876;28;20118;-78
2023/10/07 00:06:27;;;;;;;21.08;19.35;;;14.00;99.90;;;;;;4936698;28;20039;-77
2023/10/07 00:08:54;;;;;;;21.60;19.60;;;14.00;99.90;;;;;;4933831;28;20078;-77
2023/10/07 00:11:22;;;;;;;22.35;20.08;;;14.00;99.90;;;;;;4918275;28;20043;-78
2023/10/07 00:13:51;;;;;;;21.33;19.40;;;14.00;99.90;;;;;;4901408;28;20538;-74
2023/10/07 00:16:18;;;;;;;21.05;19.15;;;14.00;99.90;;;;;;4916709;28;20608;-77
2023/10/07 00:18:45;;;;;;;22.15;19.17;;;14.00;99.90;;;;;;4932599;28;20130;-75
2023/10/07 00:21:23;;;;;;;21.60;19.40;;;14.00;99.90;;;;;;4932061;28;20138;-75
2023/10/07 00:23:52;;;;;;;24.77;20.92;;;14.00;99.90;;;;;;4906448;28;20039;-75
2023/10/07 00:26:19;;;;;;;21.05;19.20;;;14.00;99.90;;;;;;4934730;28;20046;-75
2023/10/07 00:28:54;;;;;;;21.30;19.33;;;14.00;99.90;;;;;;4914648;28;20048;-75
2023/10/07 00:31:27;;;;;;;22.35;20.23;;;14.00;99.90;;;;;;4902754;28;20276;-75
2023/10/07 00:34:03;;;;;;;21.50;19.40;;;14.10;99.90;;;;;;4920391;28;20054;-75
2023/10/07 00:36:41;;;;;;;;;;;14.00;99.90;;;;;;4933622;28;20050;-77
2023/10/07 00:39:09;;;;;;;22.27;19.48;;;14.00;99.90;;;;;;4917631;28;20562;-77
2023/10/07 00:41:45;;;;;;;21.65;19.08;;;14.10;99.90;;;;;;4914151;28;20051;-75
2023/10/07 00:44:22;;;;;;;22.23;20.05;;;14.00;99.90;;;;;;4919262;28;20058;-76
2023/10/07 00:49:39;;;;;;;21.67;19.95;;;14.00;99.90;;;;;;4912086;28;20082;-75
2023/10/07 00:52:12;;;;;;;20.70;19.10;;;14.10;99.90;;;;;;4920952;28;20161;-75
2023/10/07 00:57:29;;;;;;;22.33;20.20;;;14.10;99.90;;;;;;4913570;28;20518;-76
2023/10/07 00:59:58;;;;;;;20.92;19.23;;;14.10;99.90;;;;;;4905137;28;20066;-76
2023/10/07 01:02:31;;;;;;;20.73;19.13;;;14.00;99.90;;;;;;4936704;28;20047;-75
2023/10/07 01:07:52;;;;;;;21.15;19.23;;;14.00;99.90;;;;;;4921625;28;20069;-76
2023/10/07 01:10:31;;;;;;;22.75;19.65;;;14.00;99.90;;;;;;4920895;28;20051;-76
2023/10/07 01:13:23;;;;;;;21.00;19.08;;;14.00;99.90;;;;;;4921577;28;20047;-76
2023/10/07 01:15:48;;;;;;;24.02;20.48;;;14.00;99.90;;;;;;4931432;28;20043;-75
2023/10/07 01:18:19;;;;;;;21.45;19.65;;;14.10;99.90;;;;;;4942239;28;20083;-75
2023/10/07 01:21:05;;;;;;;21.05;19.42;;;14.10;99.90;;;;;;4965803;28;20043;-76
2023/10/07 01:23:34;;;;;;;21.60;19.83;;;14.10;99.90;;;;;;4942571;28;20052;-75
2023/10/07 01:26:14;;;;;;;23.65;21.15;;;14.20;99.90;;;;;;4940000;28;20700;-76
2023/10/07 01:28:43;;;;;;;21.10;19.23;;;14.10;99.90;;;;;;4939212;28;20051;-75
2023/10/07 01:31:12;;;;;;;20.95;19.38;;;14.20;99.90;;;;;;4906182;28;20043;-76
2023/10/07 01:33:40;;;;;;;22.50;20.38;;;14.20;99.90;;;;;;4939927;28;20047;-75
2023/10/07 01:36:18;;;;;;;22.08;19.92;;;14.20;99.90;;;;;;4937653;28;20101;-76
2023/10/07 01:38:51;;;;;;;20.17;18.63;;;14.20;99.90;;;;;;4921993;28;20050;-76
2023/10/07 01:41:27;;;;;;;22.33;20.40;;;14.20;99.90;;;;;;4923192;28;20078;-75
2023/10/07 01:44:00;;;;;;;21.35;19.65;;;14.10;99.90;;;;;;4923513;28;20062;-76
2023/10/07 01:46:30;;;;;;;20.73;19.10;;;14.10;99.90;;;;;;4940536;28;20058;-76
2023/10/07 01:49:01;;;;;;;21.08;19.23;;;14.10;99.90;;;;;;4937893;28;20074;-75
2023/10/07 01:51:29;;;;;;;21.63;19.63;;;14.10;99.90;;;;;;4922995;28;20057;-76
2023/10/07 01:54:03;;;;;;;21.65;19.85;;;14.10;99.90;;;;;;4927059;28;20043;-76
2023/10/07 01:56:31;;;;;;;21.73;19.92;;;14.00;99.90;;;;;;4906099;28;20047;-75
2023/10/07 01:59:17;;;;;;;21.23;19.73;;;14.00;99.90;;;;;;4931526;28;20047;-76
2023/10/07 02:01:58;;;;;;;21.80;20.10;;;13.90;99.90;;;;;;4924721;28;20039;-75
2023/10/07 02:04:28;;;;;;;22.10;19.95;;;13.80;99.90;;;;;;4927997;28;20718;-75
2023/10/07 02:06:56;;;;;;;22.23;20.08;;;13.80;99.90;;;;;;4922078;28;20102;-76
2023/10/07 02:09:24;;;;;;;21.40;19.80;;;13.80;99.90;;;;;;4921550;28;20039;-76
2023/10/07 02:11:53;;;;;;;22.05;20.15;;;13.80;99.90;;;;;;4917577;28;20143;-76
2023/10/07 02:14:24;;;;;;;22.40;20.10;;;13.80;99.90;;;;;;4917120;28;20056;-76
2023/10/07 02:16:52;;;;;;;21.65;19.90;;;13.80;99.90;;;;;;4902638;28;20058;-75
2023/10/07 02:19:29;;;;;;;22.67;20.58;;;13.90;99.90;;;;;;4921885;28;20390;-76
2023/10/07 02:22:03;;;;;;;21.65;19.95;;;13.80;99.90;;;;;;4916999;28;20887;-76
2023/10/07 02:24:31;;;;;;;21.92;19.98;;;13.70;99.90;;;;;;4937433;28;20130;-76
2023/10/07 02:27:06;;;;;;;21.65;19.77;;;13.70;99.90;;;;;;4934617;28;20047;-75
2023/10/07 02:29:34;;;;;;;21.02;18.98;;;13.60;99.90;;;;;;4937194;28;20051;-75
2023/10/07 02:32:35;;;;;;;22.52;20.05;;;13.60;99.90;;;;;;4932658;28;20055;-76
2023/10/07 02:35:01;;;;;;;20.50;18.92;;;13.60;99.90;;;;;;4932132;28;20055;-76
2023/10/07 02:37:38;;;;;;;21.10;19.20;;;13.60;99.90;;;;;;4921191;28;20051;-76
2023/10/07 02:40:22;;;;;;;21.67;19.73;;;13.60;99.90;;;;;;4931743;28;20051;-75
2023/10/07 02:42:51;;;;;;;22.48;20.48;;;13.60;99.90;;;;;;4918698;28;20046;-75
2023/10/07 02:47:50;;;;;;;20.77;19.17;;;13.50;99.90;;;;;;4917529;29;20075;-75
2023/10/07 02:50:18;;;;;;;20.48;18.88;;;13.50;99.90;;;;;;4931812;28;20057;-76
2023/10/07 02:52:47;;;;;;;20.02;18.23;;;13.50;99.90;;;;;;4919617;28;20043;-76
2023/10/07 02:57:46;;;;;;;21.02;19.23;;;13.50;99.90;;;;;;4935218;28;20062;-76
2023/10/07 03:00:35;;;;;;;20.85;19.05;;;13.50;99.90;;;;;;4924677;28;20114;-75
2023/10/07 03:05:45;;;;;;;20.92;19.00;;;13.60;99.90;;;;;;4916806;28;20550;-75
2023/10/07 03:08:22;;;;;;;22.73;19.38;;;13.60;99.90;;;;;;4935097;28;20189;-75
2023/10/07 03:11:03;;;;;;;20.30;18.35;;;13.60;99.90;;;;;;4901265;28;20094;-76
2023/10/07 03:13:30;;;;;;;19.63;18.05;;;13.60;99.90;;;;;;4935823;28;20677;-76
2023/10/07 03:16:16;;;;;;;20.98;18.88;;;13.60;99.90;;;;;;4915481;28;20095;-75
2023/10/07 03:19:45;;;;;;;;;;;13.60;99.90;;;;;;4914944;28;20157;-74
2023/10/07 03:24:11;;;;;;;20.13;18.52;;;13.60;99.90;;;;;;4933819;28;20043;-75
2023/10/07 03:26:40;;;;;;;20.85;18.77;;;13.60;99.90;;;;;;4935714;28;20139;-75
2023/10/07 03:29:08;;;;;;;21.75;18.90;;;13.70;99.90;;;;;;4916011;28;20055;-76
2023/10/07 03:31:47;;;;;;;20.90;18.80;;;13.70;99.90;;;;;;4919016;28;20075;-76
2023/10/07 03:34:14;;;;;;;20.95;18.75;;;13.70;99.90;;;;;;4933972;28;20086;-75
2023/10/07 03:37:14;;;;;;;23.00;19.63;;;13.60;99.90;;;;;;4936982;28;20046;-75
2023/10/07 03:42:17;;;;;;;;;;;13.70;99.90;;;;;;4932642;28;20098;-75
2023/10/07 03:44:46;;;;;;;24.85;19.45;;;13.70;99.90;;;;;;4920510;29;19994;-76
2023/10/07 03:47:15;;;;;;;21.85;19.10;;;13.70;99.90;;;;;;4934566;28;20117;-76
2023/10/07 03:49:48;;;;;;;31.92;20.63;;;13.70;99.90;;;;;;4934974;28;20228;-76
2023/10/07 03:52:19;;;;;;;24.67;18.58;;;13.60;99.90;;;;;;4906782;28;20044;-76
2023/10/07 03:54:47;;;;;;;22.40;18.88;;;13.50;99.90;;;;;;4916489;29;20054;-75
2023/10/07 03:57:15;;;;;;;24.67;18.55;;;13.40;99.90;;;;;;4934970;28;20843;-75
2023/10/07 03:59:45;;;;;;;32.30;19.33;;;13.30;99.90;;;;;;4921655;29;20542;-75
2023/10/07 04:05:00;;;;;;;26.23;18.98;;;13.10;99.90;;;;;;4929201;28;20039;-74
2023/10/07 04:07:29;;;;;;;27.23;19.27;;;13.10;99.90;;;;;;4935438;28;20091;-74
2023/10/07 04:10:11;;;;;;;28.77;20.35;;;13.10;99.90;;;;;;4933095;28;20664;-73
2023/10/07 04:12:39;;;;;;;36.17;19.67;;;13.10;99.90;;;;;;4935110;28;20066;-73
2023/10/07 04:15:11;;;;;;;29.40;19.48;;;13.00;99.90;;;;;;4934311;28;20047;-74
2023/10/07 04:17:38;;;;;;;32.63;21.80;;;13.10;99.90;;;;;;4920125;28;20621;-73
2023/10/07 04:20:19;;;;;;;35.92;20.70;;;13.10;99.90;;;;;;4931585;28;20035;-74
2023/10/07 04:23:00;;;;;;;40.00;23.17;;;13.10;99.90;;;;;;4936273;28;20042;-74
2023/10/07 04:25:28;;;;;;;30.38;22.25;;;13.00;99.90;;;;;;4935309;28;20047;-74
2023/10/07 04:27:55;;;;;;;34.08;22.30;;;13.00;99.90;;;;;;4906058;28;20145;-73
2023/10/07 04:30:38;;;;;;;40.00;23.27;;;13.00;99.90;;;;;;4933619;28;20078;-73
2023/10/07 04:33:08;;;;;;;38.17;24.13;;;13.00;99.90;;;;;;4929879;28;20047;-72
2023/10/07 04:35:35;;;;;;;32.35;23.35;;;13.10;99.90;;;;;;4900363;28;20043;-74
2023/10/07 04:46:24;;;;;;;35.95;23.27;;;13.10;99.90;;;;;;4931349;28;19931;-74
2023/10/07 04:48:55;;;;;;;41.15;25.35;;;13.20;99.90;;;;;;4932290;28;20051;-73
2023/10/07 04:54:00;;;;;;;48.45;26.58;;;13.20;99.90;;;;;;4932468;28;20049;-73
2023/10/07 04:56:31;;;;;;;40.58;25.85;;;13.20;99.90;;;;;;4916549;28;20142;-73
2023/10/07 04:59:00;;;;;;;46.65;28.20;;;13.20;99.90;;;;;;4931716;28;20166;-73
2023/10/07 05:01:33;;;;;;;46.15;28.65;;;13.30;99.90;;;;;;4933132;28;20044;-74
2023/10/07 05:04:04;;;;;;;45.35;27.17;;;13.30;99.90;;;;;;4930073;28;20055;-73
2023/10/07 05:06:34;;;;;;;48.97;29.13;;;13.30;99.90;;;;;;4912166;29;20510;-74
2023/10/07 05:09:03;;;;;;;46.47;28.33;;;13.30;99.90;;;;;;4910300;29;20063;-73
2023/10/07 05:11:30;;;;;;;50.47;27.70;;;13.30;99.90;;;;;;4921726;28;20482;-74
2023/10/07 05:13:57;;;;;;;49.95;29.83;;;13.30;99.90;;;;;;4932645;28;20078;-74
2023/10/07 05:16:25;;;;;;;47.45;29.85;;;13.40;99.90;;;;;;4929941;28;20039;-73
2023/10/07 05:18:52;;;;;;;50.33;30.83;;;13.40;99.90;;;;;;4902031;28;20044;-74
2023/10/07 05:21:21;;;;;;;40.22;29.80;;;13.40;99.90;;;;;;4912995;28;20122;-73
2023/10/07 05:23:48;;;;;;;50.30;32.30;;;13.40;99.90;;;;;;4934508;28;20190;-73
2023/10/07 05:26:17;;;;;;;55.65;31.98;;;13.40;99.90;;;;;;4900343;28;20081;-72
2023/10/07 05:28:47;;;;;;;53.60;31.20;;;13.30;99.90;;;;;;4933526;28;20055;-73
2023/10/07 05:31:14;;;;;;;54.25;32.67;;;13.40;99.90;;;;;;4913323;28;20660;-72
2023/10/07 05:33:43;;;;;;;59.67;33.40;;;13.40;99.90;;;;;;4915283;28;20051;-76
2023/10/07 05:36:13;;;;;;;59.83;36.03;;;13.40;99.90;;;;;;4917335;28;20059;-73
2023/10/07 05:38:41;;;;;;;62.95;34.63;;;13.50;99.90;;;;;;4913690;28;20040;-73
2023/10/07 05:41:12;;;;;;;65.47;37.35;;;13.50;99.90;;;;;;4914620;28;20137;-73
2023/10/07 05:43:43;;;;;;;65.28;37.53;;;13.50;99.90;;;;;;4936250;28;20059;-73
2023/10/07 05:46:10;;;;;;;63.03;36.58;;;13.50;99.90;;;;;;4935105;28;20147;-74
2023/10/07 05:48:39;;;;;;;67.10;38.72;;;13.50;99.90;;;;;;4928754;28;20043;-76
2023/10/07 05:51:09;;;;;;;65.50;36.08;;;13.50;99.90;;;;;;4931870;28;20062;-74
2023/10/07 05:53:48;;;;;;;63.40;37.95;;;13.50;99.90;;;;;;4936859;28;20054;-73
2023/10/07 05:56:15;;;;;;;68.53;39.38;;;13.60;99.90;;;;;;4921336;28;20047;-73
2023/10/07 05:58:45;;;;;;;69.30;41.22;;;13.60;99.90;;;;;;4922375;29;20047;-74
2023/10/07 06:01:14;;;;;;;65.95;38.47;;;13.60;99.90;;;;;;4910879;28;20045;-74
2023/10/07 06:03:42;;;;;;;61.97;36.72;;;13.60;99.90;;;;;;4922085;28;20094;-73
2023/10/07 06:06:10;;;;;;;64.10;38.40;;;13.60;99.90;;;;;;4915729;28;20670;-73
2023/10/07 06:08:37;;;;;;;67.50;39.45;;;13.60;99.90;;;;;;4938500;28;20043;-73
2023/10/07 06:11:04;;;;;;;60.63;35.70;;;13.70;99.90;;;;;;4934472;28;20054;-73
2023/10/07 06:13:33;;;;;;;66.68;40.40;;;13.70;99.90;;;;;;4936891;28;20078;-74
2023/10/07 06:16:04;;;;;;;70.30;38.53;;;13.70;99.90;;;;;;4935306;28;20057;-72
2023/10/07 06:18:33;;;;;;;64.65;38.20;;;13.70;99.90;;;;;;4934828;28;20098;-73
2023/10/07 06:23:48;;;;;;;73.68;40.72;;;13.70;99.90;;;;;;4937281;28;20054;-73
2023/10/07 06:26:15;;;;;;;68.78;41.60;;;13.70;99.90;;;;;;4900823;28;20098;-73
2023/10/07 06:28:48;;;;;;;73.50;40.22;;;13.80;99.90;;;;;;4921482;28;20747;-73
2023/10/07 06:31:31;;;;;;;69.50;40.67;;;13.80;99.90;;;;;;4916968;28;20047;-73
2023/10/07 06:34:03;;;;;;;77.32;42.20;;;13.80;99.90;;;;;;4936454;28;20097;-73
2023/10/07 06:36:31;;;;;;;75.65;40.25;;;13.80;99.90;;;;;;4918219;28;20055;-74
2023/10/07 06:39:01;;;;;;;72.20;40.63;;;13.80;99.90;;;;;;4938432;28;20054;-72
2023/10/07 06:41:29;;;;;;;74.85;42.58;;;13.80;99.90;;;;;;4917793;28;21086;-73
2023/10/07 06:43:59;;;;;;;79.43;45.00;;;13.80;99.90;;;;;;4921928;29;20114;-73
2023/10/07 06:46:44;;;;;;;72.97;43.17;;;13.80;99.90;;;;;;4919391;28;20058;-73
2023/10/07 06:49:18;;;;;;;87.38;44.50;;;13.80;99.90;;;;;;4930478;28;20047;-74
2023/10/07 06:51:50;;;;;;;82.38;42.35;;;13.80;99.90;;;;;;4935395;28;20574;-73
2023/10/07 06:54:17;;;;;;;77.00;42.40;;;13.90;99.90;;;;;;4932770;28;20082;-73
2023/10/07 06:56:45;;;;;;;76.38;41.60;;;13.90;99.90;;;;;;4934992;28;20553;-73
2023/10/07 06:59:13;;;;;;;81.47;44.17;;;13.90;99.90;;;;;;4934115;28;20637;-73
2023/10/07 07:04:14;;;;;;;86.55;45.63;;;14.00;99.90;;;;;;4922926;28;20053;-73
2023/10/07 07:06:45;;;;;;;82.03;45.63;;;14.00;99.90;;;;;;4924884;28;20039;-74
2023/10/07 07:12:09;;;;;;;75.95;43.50;;;14.00;99.90;;;;;;4937661;28;20043;-74
2023/10/07 07:15:04;;;;;;;75.53;42.33;;;14.00;99.90;;;;;;4922494;28;20102;-73
2023/10/07 07:17:49;;;;;;;76.07;40.60;;;14.10;99.90;;;;;;4915535;28;20048;-74
2023/10/07 07:20:32;;;;;;;82.13;44.10;;;14.10;99.90;;;;;;4916887;28;20054;-74
2023/10/07 07:23:03;;;;;;;89.93;44.75;;;14.10;99.90;;;;;;4919610;28;20051;-74
2023/10/07 07:25:36;;;;;;;77.38;41.90;;;14.10;99.90;;;;;;4914445;28;20043;-73
2023/10/07 07:28:05;;;;;;;77.93;41.70;;;14.10;99.90;;;;;;4918542;29;20170;-74
2023/10/07 07:30:31;;;;;;;87.25;45.22;;;14.10;99.90;;;;;;4919006;28;20054;-74
2023/10/07 07:33:07;;;;;;;68.10;37.50;;;14.10;99.90;;;;;;4915597;29;20096;-73
2023/10/07 07:35:39;;;;;;;75.65;42.17;;;14.10;99.90;;;;;;4905543;28;20077;-73
2023/10/07 07:38:22;;;;;;;73.05;39.45;;;14.10;99.90;;;;;;4938478;28;20363;-73
2023/10/07 07:40:52;;;;;;;77.22;43.75;;;14.10;99.90;;;;;;4934839;28;20109;-73
2023/10/07 07:43:25;;;;;;;78.05;44.00;;;14.10;99.90;;;;;;4916546;28;20599;-74
2023/10/07 07:45:57;;;;;;;67.50;40.88;;;14.20;99.90;;;;;;4920654;28;20151;-72
2023/10/07 07:48:25;;;;;;;67.95;38.17;;;14.20;99.90;;;;;;4929431;28;20138;-73
2023/10/07 07:50:55;;;;;;;69.10;41.03;;;14.10;99.90;;;;;;4938809;28;20167;-74
2023/10/07 07:53:22;;;;;;;76.93;40.60;;;14.20;99.90;;;;;;4934242;28;20047;-76
2023/10/07 07:55:51;;;;;;;74.75;40.58;;;14.20;99.90;;;;;;4926764;28;20070;-74
2023/10/07 07:58:25;;;;;;;69.85;38.95;;;14.20;99.90;;;;;;4922817;28;21096;-74
2023/10/07 08:00:58;;;;;;;73.10;40.80;;;14.10;99.90;;;;;;4921385;29;20043;-74
2023/10/07 08:03:26;;;;;;;73.00;41.90;;;14.20;99.90;;;;;;4923269;28;20783;-73
2023/10/07 08:05:56;;;;;;;75.55;40.33;;;14.20;99.90;;;;;;4921605;29;20044;-74
2023/10/07 08:08:25;;;;;;;68.30;39.05;;;14.20;99.90;;;;;;4934678;28;20757;-73
2023/10/07 08:10:54;;;;;;;67.80;40.13;;;14.20;99.90;;;;;;4936874;28;20153;-73
2023/10/07 08:13:27;;;;;;;75.10;41.63;;;14.30;99.90;;;;;;4921461;28;20058;-74
2023/10/07 08:15:56;;;;;;;67.88;38.95;;;14.20;99.90;;;;;;4933101;28;20047;-74
2023/10/07 08:18:33;;;;;;;68.13;39.22;;;14.30;99.90;;;;;;4918211;28;20059;-73
2023/10/07 08:21:13;;;;;;;70.55;39.83;;;14.30;99.90;;;;;;4919742;29;20399;-74
2023/10/07 08:23:41;;;;;;;70.18;39.20;;;14.40;99.90;;;;;;4922004;28;20044;-74
2023/10/07 08:26:11;;;;;;;68.05;39.80;;;14.40;99.90;;;;;;4919755;29;20058;-74
2023/10/07 08:31:18;;;;;;;69.70;39.50;;;14.40;99.90;;;;;;4939534;28;20047;-74
2023/10/07 08:33:53;;;;;;;59.03;36.17;;;14.50;99.90;;;;;;4938655;28;20051;-74
2023/10/07 08:36:28;;;;;;;67.85;37.25;;;14.50;99.90;;;;;;4916021;28;20544;-74
2023/10/07 08:38:59;;;;;;;67.82;37.90;;;14.50;99.90;;;;;;4925943;28;20059;-74
2023/10/07 08:41:28;;;;;;;50.42;34.25;;;14.60;99.90;;;;;;4930257;28;20398;-73
2023/10/07 08:44:17;;;;;;;57.50;34.60;;;14.60;99.90;;;;;;4936473;28;20501;-75
2023/10/07 08:46:49;;;;;;;50.72;33.50;;;14.60;99.90;;;;;;4921422;28;20544;-73
2023/10/07 08:49:17;;;;;;;56.92;34.83;;;14.60;99.90;;;;;;4935807;28;20039;-74
2023/10/07 08:51:54;;;;;;;60.67;35.72;;;14.70;99.90;;;;;;4917617;28;20063;-74
2023/10/07 08:54:31;;;;;;;54.15;33.10;;;14.70;99.90;;;;;;4923748;28;20066;-73
2023/10/07 08:57:10;;;;;;;55.33;34.15;;;14.70;99.90;;;;;;4918626;28;20051;-75
2023/10/07 08:59:40;;;;;;;60.75;37.40;;;14.70;99.90;;;;;;4936451;28;20066;-75
2023/10/07 09:02:12;;;;;;;49.70;32.38;;;14.70;99.90;;;;;;4936949;28;20047;-75
2023/10/07 09:04:40;;;;;;;56.65;33.78;;;14.70;99.90;;;;;;4921808;28;20166;-75
2023/10/07 09:07:08;;;;;;;52.60;33.85;;;14.70;99.90;;;;;;4919790;28;20047;-76
2023/10/07 09:09:43;;;;;;;56.33;37.03;;;14.70;99.90;;;;;;4935107;28;20602;-74
2023/10/07 09:12:15;;;;;;;57.50;36.55;;;14.80;99.90;;;;;;4921169;28;20726;-75
2023/10/07 09:14:55;;;;;;;57.83;34.92;;;14.80;99.90;;;;;;4936638;28;20066;-74
2023/10/07 09:17:27;;;;;;;50.60;33.45;;;14.80;99.90;;;;;;4932401;28;20055;-74
2023/10/07 09:19:58;;;;;;;51.38;33.25;;;14.80;99.90;;;;;;4923459;28;20062;-74
2023/10/07 09:22:33;;;;;;;55.30;36.50;;;14.80;99.90;;;;;;4909169;28;20103;-74
2023/10/07 09:25:17;;;;;;;53.40;33.83;;;14.70;99.90;;;;;;4943958;28;20044;-75
2023/10/07 09:27:56;;;;;;;57.17;35.90;;;14.80;99.90;;;;;;4939126;28;20051;-74
2023/10/07 09:33:15;;;;;;;53.58;34.90;;;14.90;99.90;;;;;;4943526;28;20047;-74
2023/10/07 09:35:47;;;;;;;48.25;32.67;;;14.80;99.90;;;;;;4940272;28;20738;-75
2023/10/07 09:38:34;;;;;;;51.10;34.50;;;14.80;99.90;;;;;;4940199;28;20114;-75
2023/10/07 09:44:31;;;;;;;55.83;33.75;;;14.90;99.90;;;;;;4940154;28;20050;-76
2023/10/07 09:47:12;;;;;;;50.00;32.78;;;14.90;99.90;;;;;;4938065;28;20610;-75
2023/10/07 09:49:39;;;;;;;52.15;33.05;;;14.90;99.90;;;;;;4927133;28;20070;-76
2023/10/07 09:52:17;;;;;;;50.15;34.03;;;15.00;99.90;;;;;;4944154;28;20047;-75
2023/10/07 09:55:22;;;;;;;47.05;33.22;;;15.10;99.90;;;;;;4924913;28;20087;-76
2023/10/07 09:57:49;;;;;;;46.72;31.80;;;15.20;99.90;;;;;;4946305;28;20054;-75
2023/10/07 10:03:28;;;;;;;41.20;32.70;;;15.40;99.90;;;;;;4944024;28;20066;-76
2023/10/07 10:06:36;;;;;;;39.13;32.00;;;15.50;99.90;;;;;;4926470;28;20036;-76
2023/10/07 10:09:13;;;;;;;40.58;30.25;;;15.70;99.90;;;;;;4946454;28;20077;-75
2023/10/07 10:11:55;;;;;;;34.40;29.10;;;15.80;99.90;;;;;;4923369;28;20047;-77
2023/10/07 10:14:55;;;;;;;42.45;28.42;;;15.90;99.90;;;;;;4920145;28;20111;-76
2023/10/07 10:17:22;;;;;;;31.65;28.25;;;16.10;99.90;;;;;;4941091;28;20039;-76
2023/10/07 10:20:09;;;;;;;30.33;26.90;;;16.20;99.90;;;;;;4907762;28;20034;-77
2023/10/07 10:22:37;;;;;;;30.50;27.48;;;16.40;99.90;;;;;;4941835;28;20142;-77
2023/10/07 10:25:22;;;;;;;30.63;26.70;;;16.80;99.90;;;;;;4933940;28;20047;-76
2023/10/07 10:28:27;;;;;;;28.38;25.58;;;17.00;99.90;;;;;;4933002;28;20540;-76
2023/10/07 10:30:55;;;;;;;30.42;27.13;;;17.60;99.90;;;;;;4912886;28;20094;-75
2023/10/07 10:33:28;;;;;;;31.33;28.00;;;17.60;99.90;;;;;;4924401;28;20214;-77
2023/10/07 10:35:59;;;;;;;29.85;26.80;;;17.80;99.90;;;;;;4944950;28;20043;-76
2023/10/07 10:38:37;;;;;;;26.73;24.35;;;18.00;99.90;;;;;;4915541;28;20050;-75
2023/10/07 10:41:05;;;;;;;26.70;24.40;;;18.30;99.90;;;;;;4946910;28;20137;-76
2023/10/07 10:43:32;;;;;;;25.70;23.65;;;18.50;99.90;;;;;;4939140;28;20066;-77
2023/10/07 10:46:07;;;;;;;24.73;22.65;;;18.70;99.90;;;;;;4926162;28;20074;-76
2023/10/07 10:48:35;;;;;;;24.33;22.15;;;18.90;99.90;;;;;;4945679;28;20048;-75
2023/10/07 10:51:05;;;;;;;24.20;22.27;;;19.00;99.90;;;;;;4949262;28;20040;-75
2023/10/07 10:53:33;;;;;;;23.00;21.42;;;19.00;99.90;;;;;;4945618;28;20058;-74
2023/10/07 10:56:03;;;;;;;22.92;21.30;;;19.30;99.90;;;;;;4958171;28;20075;-76
2023/10/07 10:58:59;;;;;;;24.40;22.25;;;19.40;99.90;;;;;;4932937;28;20720;-76
2023/10/07 11:01:48;;;;;;;24.13;22.27;;;19.50;99.90;;;;;;4922539;28;21191;-76
2023/10/07 11:04:21;;;;;;;25.48;23.73;;;19.70;99.90;;;;;;4943039;28;20074;-75
2023/10/07 11:07:14;;;;;;;27.05;24.83;;;20.00;99.90;;;;;;4921042;28;20051;-75
2023/10/07 11:09:43;;;;;;;25.02;23.23;;;20.00;99.90;;;;;;4922824;28;20055;-74
2023/10/07 11:12:12;;;;;;;24.73;23.08;;;19.90;99.90;;;;;;4927416;28;20517;-75
2023/10/07 11:14:43;;;;;;;23.85;22.55;;;20.00;99.90;;;;;;4919695;28;20051;-76
2023/10/07 11:17:12;;;;;;;24.90;23.40;;;20.30;99.90;;;;;;4936293;28;20544;-74
2023/10/07 11:19:41;;;;;;;23.90;22.42;;;20.10;99.90;;;;;;4901284;28;20056;-71
2023/10/07 11:22:19;;;;;;;23.98;22.25;;;20.00;99.90;;;;;;4937999;28;20047;-74
2023/10/07 11:24:49;;;;;;;21.52;20.20;;;19.90;99.90;;;;;;4924176;28;20573;-75
2023/10/07 11:27:17;;;;;;;23.50;21.88;;;19.90;99.90;;;;;;4935557;28;20073;-73
2023/10/07 11:29:44;;;;;;;22.33;20.75;;;19.90;99.90;;;;;;4939270;28;20130;-76
2023/10/07 11:32:12;;;;;;;24.17;22.58;;;19.80;99.90;;;;;;4909854;28;20581;-74
2023/10/07 11:34:42;;;;;;;23.10;21.80;;;19.80;99.90;;;;;;4916883;28;20058;-72
2023/10/07 11:37:22;;;;;;;24.08;22.33;;;19.70;99.90;;;;;;4942699;28;20035;-72
2023/10/07 11:39:50;;;;;;;22.58;21.38;;;19.80;99.90;;;;;;4921432;28;20050;-72
2023/10/07 11:42:22;;;;;;;22.90;21.40;;;20.00;99.90;;;;;;4921759;28;20051;-74
2023/10/07 11:45:04;;;;;;;22.95;21.63;;;20.10;99.90;;;;;;4916442;28;21096;-73
2023/10/07 11:47:33;;;;;;;20.90;19.58;;;20.10;99.90;;;;;;4935417;28;20606;-72
2023/10/07 11:50:04;;;;;;;21.33;19.98;;;20.00;99.90;;;;;;4935858;28;20129;-71
2023/10/07 11:52:46;;;;;;;22.17;20.60;;;19.90;99.90;;;;;;4937001;28;20061;-71
2023/10/07 11:55:16;;;;;;;21.77;20.38;;;20.00;99.90;;;;;;4935145;28;20062;-71
2023/10/07 11:57:44;;;;;;;22.38;20.77;;;20.00;99.90;;;;;;4935959;28;20050;-72
2023/10/07 12:00:34;;;;;;;23.63;21.45;;;19.80;99.90;;;;;;4944407;28;20051;-72
2023/10/07 12:03:07;;;;;;;21.50;20.00;;;19.90;99.90;;;;;;4919428;28;20050;-71
2023/10/07 12:05:39;;;;;;;21.27;19.88;;;19.80;99.90;;;;;;4930875;28;20036;-71
2023/10/07 12:08:08;;;;;;;20.88;19.58;;;19.90;99.90;;;;;;4914460;28;20047;-71
2023/10/07 12:10:38;;;;;;;20.98;19.70;;;19.80;99.90;;;;;;4933050;28;20125;-71
2023/10/07 12:13:14;;;;;;;21.02;19.75;;;19.80;99.90;;;;;;4922969;28;20047;-73
2023/10/07 12:15:44;;;;;;;21.40;19.98;;;19.70;99.90;;;;;;4930086;28;20155;-71
2023/10/07 12:18:30;;;;;;;21.38;20.15;;;19.50;99.90;;;;;;4931358;28;20483;-71
2023/10/07 12:21:00;;;;;;;20.92;19.50;;;19.40;99.90;;;;;;4933696;28;20047;-70
2023/10/07 12:23:28;;;;;;;19.98;18.88;;;19.50;99.90;;;;;;4925147;28;20047;-71
2023/10/07 12:25:57;;;;;;;20.80;19.38;;;19.70;99.90;;;;;;4910059;28;20101;-71
2023/10/07 12:28:24;;;;;;;20.83;19.52;;;19.70;99.90;;;;;;4926478;28;20054;-73
2023/10/07 12:30:51;;;;;;;21.70;20.13;;;19.70;99.90;;;;;;4933453;28;20054;-71
2023/10/07 12:33:18;;;;;;;20.33;19.10;;;19.80;99.90;;;;;;4934895;28;20043;-72
2023/10/07 12:36:12;;;;;;;21.20;19.50;;;19.80;99.90;;;;;;4936175;28;20070;-73
2023/10/07 12:38:40;;;;;;;20.85;18.98;;;19.70;99.90;;;;;;4917419;28;20051;-69
2023/10/07 12:41:13;;;;;;;20.80;19.40;;;19.70;99.90;;;;;;4929928;28;20051;-71
2023/10/07 12:43:41;;;;;;;21.10;19.75;;;19.70;99.90;;;;;;4930211;28;20132;-70
2023/10/07 12:46:10;;;;;;;21.73;20.20;;;19.60;99.90;;;;;;4934740;28;20062;-70
2023/10/07 12:48:41;;;;;;;20.50;19.25;;;19.50;99.90;;;;;;4935299;28;20129;-72
2023/10/07 12:51:08;;;;;;;22.17;20.42;;;19.50;99.90;;;;;;4935554;28;20390;-71
2023/10/07 12:53:44;;;;;;;20.33;19.05;;;19.50;99.90;;;;;;4932686;28;20043;-70
2023/10/07 12:56:19;;;;;;;20.40;18.95;;;19.60;99.90;;;;;;4923234;28;20051;-71
2023/10/07 12:58:47;;;;;;;21.70;19.95;;;19.50;99.90;;;;;;4933864;28;20054;-72
2023/10/07 13:01:19;;;;;;;21.38;19.92;;;19.60;99.90;;;;;;4936462;28;20043;-72
2023/10/07 13:03:47;;;;;;;20.40;18.90;;;19.60;99.90;;;;;;4913809;28;20142;-69
2023/10/07 13:06:14;;;;;;;20.17;18.80;;;19.50;99.90;;;;;;4938795;28;20051;-72
2023/10/07 13:08:42;;;;;;;20.50;19.17;;;19.50;99.90;;;;;;4930697;28;20429;-71
2023/10/07 13:11:13;;;;;;;20.80;19.38;;;19.60;99.90;;;;;;4920360;28;20125;-70
2023/10/07 13:13:45;;;;;;;20.17;18.77;;;19.50;99.90;;;;;;4936405;28;20677;-71
2023/10/07 13:16:13;;;;;;;20.10;18.35;;;19.60;99.90;;;;;;4934576;28;20402;-72
2023/10/07 13:18:41;;;;;;;21.00;19.20;;;19.60;99.90;;;;;;4935546;28;20050;-71
2023/10/07 13:21:13;;;;;;;20.90;19.40;;;19.60;99.90;;;;;;4930123;28;20053;-71
2023/10/07 13:23:41;;;;;;;21.23;19.52;;;19.50;99.90;;;;;;4930640;28;20053;-70
2023/10/07 13:26:11;;;;;;;20.60;19.15;;;19.60;99.90;;;;;;4935486;28;20054;-71
2023/10/07 13:28:39;;;;;;;20.70;19.23;;;19.50;99.90;;;;;;4929595;28;20055;-71
2023/10/07 13:31:08;;;;;;;20.70;19.38;;;19.50;99.90;;;;;;4932484;28;20039;-73
2023/10/07 13:33:36;;;;;;;21.15;19.52;;;19.40;99.90;;;;;;4938935;28;20533;-70
2023/10/07 13:36:07;;;;;;;22.10;20.33;;;19.40;99.90;;;;;;4932043;28;20051;-74
2023/10/07 13:38:34;;;;;;;20.35;18.88;;;19.40;99.90;;;;;;4913007;28;20138;-71
2023/10/07 13:41:03;;;;;;;21.02;19.63;;;19.40;99.90;;;;;;4928800;28;20049;-73
2023/10/07 13:43:33;;;;;;;19.83;18.50;;;19.30;99.90;;;;;;4916346;28;20088;-72
2023/10/07 13:46:09;;;;;;;20.45;18.65;;;19.50;99.90;;;;;;4933280;28;20137;-71
2023/10/07 13:48:37;;;;;;;20.05;18.42;;;20.00;99.90;;;;;;4919013;28;20122;-73
2023/10/07 13:51:05;;;;;;;20.45;18.75;;;20.20;99.90;;;;;;4916995;28;20047;-76